Time;durP1;ratioP1;P1;durP2;ratioP2;P2;SDS_P1;SDS_P2;PMS_P1;PMS_P2;Temp;Humidity;BMP_temperature;BMP_pressure;BME280_temperature;BME280_humidity;BME280_pressure;Samples;Min_cycle;Max_cycle;Signal;HPM_P1;HPM_P2
2022/06/19 00:01:41;;;;;;;;;;;20.70;64.60;;;;;;5043148;28;87292;-44
2022/06/19 00:04:07;;;;;;;;;;;20.70;64.60;;;;;;5043261;27;87609;-44
2022/06/19 00:06:35;;;;;;;;;;;20.70;64.80;;;;;;5042973;28;87730;-44
2022/06/19 00:09:01;;;;;;;;;;;20.70;64.60;;;;;;5042481;28;86881;-44
2022/06/19 00:11:27;;;;;;;;;;;20.60;64.60;;;;;;5042368;27;88848;-44
2022/06/19 00:13:53;;;;;;;;;;;20.70;64.70;;;;;;5041163;28;90664;-44
2022/06/19 00:16:18;;;;;;;;;;;20.60;64.60;;;;;;5043023;28;87184;-45
2022/06/19 00:18:44;;;;;;;;;;;20.60;64.60;;;;;;5045136;27;88006;-44
2022/06/19 00:21:10;;;;;;;;;;;20.60;64.60;;;;;;5042810;27;87029;-44
2022/06/19 00:23:36;;;;;;;;;;;20.60;64.60;;;;;;5042499;27;87942;-44
2022/06/19 00:26:02;;;;;;;;;;;20.60;64.60;;;;;;5042350;28;88024;-44
2022/06/19 00:28:28;;;;;;;;;;;20.60;64.60;;;;;;5048645;27;87506;-44
2022/06/19 00:30:53;;;;;;;;;;;20.50;64.50;;;;;;5049875;27;87339;-44
2022/06/19 00:33:19;;;;;;;;;;;20.50;64.60;;;;;;5048948;28;88092;-44
2022/06/19 00:35:45;;;;;;;;;;;20.50;64.60;;;;;;5049449;28;87008;-44
2022/06/19 00:38:10;;;;;;;;;;;20.50;64.60;;;;;;5048525;27;87887;-45
2022/06/19 00:40:36;;;;;;;;;;;20.50;64.60;;;;;;5051915;28;88281;-43
2022/06/19 00:43:02;;;;;;;;;;;20.50;64.60;;;;;;5049035;27;88822;-44
2022/06/19 00:45:32;;;;;;;;;;;20.40;64.60;;;;;;5048667;28;88025;-44
2022/06/19 00:47:59;;;;;;;;;;;20.40;64.60;;;;;;5049117;28;87631;-44
2022/06/19 00:50:29;;;;;;;;;;;20.40;64.60;;;;;;5049245;27;87481;-44
2022/06/19 00:52:55;;;;;;;;;;;20.40;64.70;;;;;;5048787;28;88103;-44
2022/06/19 00:55:23;;;;;;;;;;;20.40;64.70;;;;;;5049611;28;87300;-44
2022/06/19 00:57:50;;;;;;;;;;;20.40;64.80;;;;;;5048713;27;86849;-44
2022/06/19 01:00:24;;;;;;;;;;;20.30;64.70;;;;;;5048548;28;88065;-44
2022/06/19 01:02:51;;;;;;;;;;;20.30;64.80;;;;;;5051526;28;87805;-44
2022/06/19 01:05:17;;;;;;;;;;;20.30;64.80;;;;;;5048479;28;88172;-44
2022/06/19 01:07:43;;;;;;;;;;;20.30;64.70;;;;;;5048554;28;87041;-44
2022/06/19 01:10:10;;;;;;;;;;;20.30;64.70;;;;;;5048646;28;88881;-44
2022/06/19 01:12:35;;;;;;;;;;;20.30;64.70;;;;;;5047515;28;89204;-44
2022/06/19 01:15:02;;;;;;;;;;;20.20;64.70;;;;;;5048544;28;87137;-43
2022/06/19 01:17:30;;;;;;;;;;;20.20;64.90;;;;;;5048555;27;88793;-44
2022/06/19 01:19:55;;;;;;;;;;;20.20;64.80;;;;;;5048819;28;87332;-44
2022/06/19 01:22:21;;;;;;;;;;;20.10;64.70;;;;;;5048879;28;87114;-44
2022/06/19 01:25:05;;;;;;;;;;;20.10;64.80;;;;;;5051362;28;87300;-43
2022/06/19 01:30:17;;;;;;;;;;;20.10;64.90;;;;;;5048745;28;87604;-44
2022/06/19 01:32:44;;;;;;;;;;;20.10;64.80;;;;;;5048302;28;87743;-44
2022/06/19 01:35:11;;;;;;;;;;;20.10;64.90;;;;;;5048358;28;86986;-44
2022/06/19 01:37:38;;;;;;;;;;;20.00;64.90;;;;;;5048079;28;88846;-44
2022/06/19 01:40:07;;;;;;;;;;;20.00;64.90;;;;;;5043722;28;87963;-45
2022/06/19 01:42:32;;;;;;;;;;;20.00;65.00;;;;;;5045093;28;87210;-44
2022/06/19 01:44:58;;;;;;;;;;;20.00;65.50;;;;;;5045489;28;87449;-44
2022/06/19 01:47:24;;;;;;;;;;;19.90;65.00;;;;;;5047553;28;89267;-44
2022/06/19 01:49:51;;;;;;;;;;;19.90;64.90;;;;;;5045051;28;87583;-44
2022/06/19 01:52:18;;;;;;;;;;;19.90;64.70;;;;;;5043627;28;89663;-44
2022/06/19 01:54:55;;;;;;;;;;;19.90;64.90;;;;;;5045019;28;87140;-44
2022/06/19 01:57:21;;;;;;;;;;;19.90;64.90;;;;;;5044966;27;87541;-44
2022/06/19 01:59:48;;;;;;;;;;;19.80;64.80;;;;;;5044687;28;87888;-44
2022/06/19 02:02:15;;;;;;;;;;;19.80;64.90;;;;;;5044706;28;87149;-44
2022/06/19 02:04:42;;;;;;;;;;;19.80;64.90;;;;;;5044516;28;87458;-44
2022/06/19 02:07:10;;;;;;;;;;;19.80;64.90;;;;;;5044357;28;89469;-44
2022/06/19 02:09:35;;;;;;;;;;;19.80;65.00;;;;;;5047774;28;86357;-44
2022/06/19 02:12:02;;;;;;;;;;;19.80;65.00;;;;;;5044127;28;87982;-44
2022/06/19 02:14:28;;;;;;;;;;;19.80;64.90;;;;;;5044387;28;87231;-44
2022/06/19 02:16:54;;;;;;;;;;;19.70;64.90;;;;;;5044044;27;87958;-44
2022/06/19 02:19:20;;;;;;;;;;;19.70;64.90;;;;;;5043988;28;88508;-44
2022/06/19 02:21:47;;;;;;;;;;;19.70;65.00;;;;;;5044512;28;87734;-44
2022/06/19 02:24:15;;;;;;;;;;;19.70;64.90;;;;;;5044397;27;87255;-44
2022/06/19 02:26:41;;;;;;;;;;;19.60;64.90;;;;;;5043932;28;88372;-44
2022/06/19 02:29:09;;;;;;;;;;;19.60;65.00;;;;;;5047455;28;87069;-44
2022/06/19 02:31:38;;;;;;;;;;;19.60;65.00;;;;;;5043869;28;89449;-44
2022/06/19 02:34:06;;;;;;;;;;;19.60;64.90;;;;;;5044243;28;86380;-44
2022/06/19 02:36:41;;;;;;;;;;;19.60;65.10;;;;;;5044202;28;86978;-44
2022/06/19 02:39:12;;;;;;;;;;;19.60;65.20;;;;;;5043720;28;88312;-44
2022/06/19 02:41:44;;;;;;;;;;;19.50;65.00;;;;;;5043626;28;88066;-44
2022/06/19 02:44:10;;;;;;;;;;;19.50;65.00;;;;;;5044221;27;89910;-43
2022/06/19 02:46:35;;;;;;;;;;;19.50;65.10;;;;;;5043649;28;88037;-44
2022/06/19 02:49:01;;;;;;;;;;;19.50;65.10;;;;;;5044140;28;86903;-44
2022/06/19 02:51:27;;;;;;;;;;;19.40;65.20;;;;;;5046578;28;88288;-44
2022/06/19 02:53:52;;;;;;;;;;;19.40;65.10;;;;;;5044008;28;87137;-44
2022/06/19 02:56:18;;;;;;;;;;;19.50;65.10;;;;;;5044097;28;87440;-44
2022/06/19 02:58:43;;;;;;;;;;;19.40;65.00;;;;;;5044066;28;87328;-44
2022/06/19 03:01:09;;;;;;;;;;;19.40;65.00;;;;;;5043883;28;87165;-44
2022/06/19 03:03:38;;;;;;;;;;;19.40;65.00;;;;;;5044051;28;87514;-44
2022/06/19 03:06:05;;;;;;;;;;;19.40;65.00;;;;;;5042526;28;89011;-44
2022/06/19 03:08:30;;;;;;;;;;;19.40;65.00;;;;;;5043598;28;87225;-43
2022/06/19 03:10:56;;;;;;;;;;;19.30;65.00;;;;;;5043553;28;87449;-44
2022/06/19 03:13:21;;;;;;;;;;;19.30;65.10;;;;;;5046056;28;88058;-43
2022/06/19 03:15:47;;;;;;;;;;;19.30;65.00;;;;;;5043587;28;87442;-44
2022/06/19 03:18:13;;;;;;;;;;;19.30;65.00;;;;;;5043125;28;88312;-44
2022/06/19 03:20:39;;;;;;;;;;;19.30;65.00;;;;;;5043692;28;87150;-43
2022/06/19 03:23:04;;;;;;;;;;;19.30;64.90;;;;;;5044003;27;87556;-44
2022/06/19 03:25:30;;;;;;;;;;;19.30;65.00;;;;;;5043334;28;88427;-44
2022/06/19 03:27:57;;;;;;;;;;;19.30;65.00;;;;;;5043138;28;87532;-45
2022/06/19 03:30:22;;;;;;;;;;;19.20;65.00;;;;;;5042625;28;88865;-44
2022/06/19 03:32:48;;;;;;;;;;;19.20;65.00;;;;;;5042791;28;89315;-44
2022/06/19 03:35:14;;;;;;;;;;;19.20;64.90;;;;;;5046310;28;87667;-45
2022/06/19 03:37:40;;;;;;;;;;;19.20;64.90;;;;;;5043074;28;88000;-44
2022/06/19 03:40:06;;;;;;;;;;;19.20;65.10;;;;;;5042992;28;87122;-44
2022/06/19 03:42:31;;;;;;;;;;;19.10;65.00;;;;;;5043322;27;87370;-43
2022/06/19 03:44:57;;;;;;;;;;;19.10;65.10;;;;;;5042688;28;87907;-44
2022/06/19 03:47:23;;;;;;;;;;;19.10;65.00;;;;;;5043770;28;86395;-44
2022/06/19 03:49:49;;;;;;;;;;;19.10;65.00;;;;;;5043049;27;89327;-44
2022/06/19 03:52:15;;;;;;;;;;;19.10;65.60;;;;;;5042857;28;88248;-44
2022/06/19 03:54:40;;;;;;;;;;;19.10;65.00;;;;;;5042392;28;87954;-44
2022/06/19 03:57:06;;;;;;;;;;;19.00;65.00;;;;;;5045430;27;89726;-44
2022/06/19 03:59:31;;;;;;;;;;;19.10;65.00;;;;;;5042788;28;87150;-44
2022/06/19 04:01:57;;;;;;;;;;;19.10;65.00;;;;;;5042305;27;87852;-44
2022/06/19 04:04:22;;;;;;;;;;;19.00;64.80;;;;;;5042428;27;88148;-44
2022/06/19 04:06:48;;;;;;;;;;;19.10;65.00;;;;;;5043006;28;87131;-45
2022/06/19 04:09:14;;;;;;;;;;;19.00;65.10;;;;;;5041270;28;90691;-44
2022/06/19 04:11:41;;;;;;;;;;;19.00;65.00;;;;;;5042863;28;86418;-44
2022/06/19 04:14:07;;;;;;;;;;;19.00;65.10;;;;;;5042618;28;87105;-44
2022/06/19 04:16:34;;;;;;;;;;;19.00;65.00;;;;;;5045044;27;87153;-44
2022/06/19 04:19:01;;;;;;;;;;;19.00;64.90;;;;;;5041783;28;88215;-44
2022/06/19 04:21:28;;;;;;;;;;;19.00;65.10;;;;;;5042709;27;87958;-44
2022/06/19 04:23:56;;;;;;;;;;;19.00;64.90;;;;;;5042249;28;88222;-44
2022/06/19 04:26:23;;;;;;;;;;;18.90;64.90;;;;;;5042556;27;87195;-44
2022/06/19 04:28:48;;;;;;;;;;;19.00;64.90;;;;;;5042489;28;89534;-44
2022/06/19 04:31:14;;;;;;;;;;;18.90;64.80;;;;;;5041862;28;89705;-44
2022/06/19 04:33:40;;;;;;;;;;;19.00;64.80;;;;;;5042379;28;87110;-44
2022/06/19 04:36:10;;;;;;;;;;;19.00;64.80;;;;;;5042846;27;88727;-44
2022/06/19 04:38:36;;;;;;;;;;;18.90;64.80;;;;;;5044867;28;88693;-45
2022/06/19 04:41:01;;;;;;;;;;;19.00;64.80;;;;;;5042486;28;87391;-44
2022/06/19 04:43:27;;;;;;;;;;;19.00;64.80;;;;;;5041395;28;88193;-44
2022/06/19 04:46:00;;;;;;;;;;;18.90;64.80;;;;;;5042035;28;87008;-44
2022/06/19 04:48:25;;;;;;;;;;;18.90;65.10;;;;;;5042543;27;87351;-44
2022/06/19 04:50:53;;;;;;;;;;;18.90;65.00;;;;;;5041495;28;89286;-44
2022/06/19 04:53:19;;;;;;;;;;;18.90;65.10;;;;;;5041986;28;87095;-44
2022/06/19 04:55:44;;;;;;;;;;;18.90;64.90;;;;;;5042210;28;87504;-44
2022/06/19 04:58:10;;;;;;;;;;;18.90;64.90;;;;;;5041838;28;87978;-44
2022/06/19 05:00:35;;;;;;;;;;;18.90;65.00;;;;;;5045575;28;86391;-44
2022/06/19 05:03:01;;;;;;;;;;;18.90;64.90;;;;;;5041767;28;88031;-46
2022/06/19 05:05:26;;;;;;;;;;;18.90;64.90;;;;;;5042347;28;87566;-44
2022/06/19 05:07:52;;;;;;;;;;;19.00;64.90;;;;;;5041727;27;87893;-44
2022/06/19 05:10:17;;;;;;;;;;;19.00;64.90;;;;;;5041589;28;88104;-44
2022/06/19 05:12:43;;;;;;;;;;;18.90;65.00;;;;;;5041736;27;87042;-44
2022/06/19 05:15:09;;;;;;;;;;;18.90;65.00;;;;;;5044131;27;88731;-44
2022/06/19 05:17:35;;;;;;;;;;;18.90;65.00;;;;;;5045258;28;87876;-44
2022/06/19 05:20:01;;;;;;;;;;;18.90;65.00;;;;;;5045642;28;87391;-44
2022/06/19 05:22:26;;;;;;;;;;;19.00;65.10;;;;;;5047978;27;87454;-44
2022/06/19 05:24:52;;;;;;;;;;;19.00;65.10;;;;;;5045975;28;86481;-44
2022/06/19 05:27:17;;;;;;;;;;;18.90;65.20;;;;;;5045551;28;87052;-44
2022/06/19 05:29:43;;;;;;;;;;;18.90;65.20;;;;;;5044619;28;88490;-45
2022/06/19 05:32:08;;;;;;;;;;;18.90;65.10;;;;;;5044800;28;88029;-44
2022/06/19 05:34:35;;;;;;;;;;;19.00;65.10;;;;;;5045221;28;88191;-44
2022/06/19 05:37:01;;;;;;;;;;;19.00;65.20;;;;;;5044989;28;88084;-44
2022/06/19 05:39:26;;;;;;;;;;;18.90;65.10;;;;;;5045382;28;87204;-44
2022/06/19 05:41:57;;;;;;;;;;;19.00;65.10;;;;;;5045298;28;87396;-44
2022/06/19 05:44:23;;;;;;;;;;;18.90;65.50;;;;;;5047164;28;89294;-44
2022/06/19 05:46:49;;;;;;;;;;;18.90;65.40;;;;;;5045304;28;87501;-44
2022/06/19 05:49:15;;;;;;;;;;;19.00;65.20;;;;;;5045273;28;87165;-44
2022/06/19 05:51:40;;;;;;;;;;;19.00;65.30;;;;;;5045218;28;86866;-44
2022/06/19 05:54:06;;;;;;;;;;;19.00;65.20;;;;;;5044931;27;87321;-44
2022/06/19 05:56:32;;;;;;;;;;;19.00;65.20;;;;;;5043895;28;88983;-44
2022/06/19 05:58:57;;;;;;;;;;;19.00;65.30;;;;;;5044716;28;87080;-44
2022/06/19 06:01:23;;;;;;;;;;;19.00;65.30;;;;;;5044513;27;88632;-44
2022/06/19 06:03:49;;;;;;;;;;;19.00;65.30;;;;;;5044371;28;88159;-44
2022/06/19 06:06:20;;;;;;;;;;;19.00;65.30;;;;;;5047674;28;87029;-44
2022/06/19 06:08:45;;;;;;;;;;;19.00;65.20;;;;;;5044135;28;88009;-44
2022/06/19 06:11:11;;;;;;;;;;;19.00;65.20;;;;;;5044268;28;86887;-44
2022/06/19 06:13:37;;;;;;;;;;;19.10;65.20;;;;;;5045029;27;87202;-44
2022/06/19 06:16:04;;;;;;;;;;;19.10;65.30;;;;;;5043943;28;89177;-45
2022/06/19 06:18:30;;;;;;;;;;;19.10;65.30;;;;;;5044429;28;87102;-44
2022/06/19 06:21:06;;;;;;;;;;;19.10;65.30;;;;;;5043984;27;88073;-44
2022/06/19 06:23:32;;;;;;;;;;;19.10;65.40;;;;;;5044014;28;87255;-44
2022/06/19 06:26:06;;;;;;;;;;;19.00;65.50;;;;;;5046806;28;86959;-44
2022/06/19 06:28:32;;;;;;;;;;;19.00;65.40;;;;;;5044017;28;88247;-44
2022/06/19 06:30:58;;;;;;;;;;;19.10;65.50;;;;;;5044344;28;87094;-44
2022/06/19 06:33:23;;;;;;;;;;;19.10;65.60;;;;;;5044319;27;87454;-44
2022/06/19 06:35:49;;;;;;;;;;;19.10;65.40;;;;;;5043444;28;89869;-44
2022/06/19 06:38:14;;;;;;;;;;;19.10;65.40;;;;;;5044743;28;86339;-44
2022/06/19 06:40:40;;;;;;;;;;;19.10;65.40;;;;;;5044363;28;86967;-45
2022/06/19 06:43:06;;;;;;;;;;;19.10;65.50;;;;;;5043902;28;88273;-44
2022/06/19 06:45:31;;;;;;;;;;;19.10;65.60;;;;;;5043432;28;88030;-44
2022/06/19 06:47:56;;;;;;;;;;;19.10;65.50;;;;;;5046784;28;87387;-45
2022/06/19 06:50:22;;;;;;;;;;;19.10;65.50;;;;;;5044015;28;87397;-43
2022/06/19 06:52:48;;;;;;;;;;;19.10;65.30;;;;;;5044023;27;86970;-44
2022/06/19 06:55:14;;;;;;;;;;;19.20;65.40;;;;;;5043555;28;88073;-45
2022/06/19 06:57:40;;;;;;;;;;;19.10;65.20;;;;;;5043963;28;86997;-44
2022/06/19 07:00:06;;;;;;;;;;;19.10;65.20;;;;;;5043901;28;87490;-44
2022/06/19 07:02:32;;;;;;;;;;;19.10;65.20;;;;;;5043766;28;89009;-44
2022/06/19 07:04:57;;;;;;;;;;;19.10;65.20;;;;;;5043950;28;87109;-44
2022/06/19 07:07:23;;;;;;;;;;;19.10;65.10;;;;;;5044081;28;87448;-44
2022/06/19 07:09:48;;;;;;;;;;;19.10;65.20;;;;;;5045121;28;89238;-45
2022/06/19 07:12:13;;;;;;;;;;;19.10;65.00;;;;;;5043145;28;88459;-44
2022/06/19 07:14:39;;;;;;;;;;;19.10;65.00;;;;;;5043370;28;88316;-44
2022/06/19 07:17:05;;;;;;;;;;;19.20;64.90;;;;;;5043847;28;87151;-45
2022/06/19 07:19:31;;;;;;;;;;;19.10;64.80;;;;;;5043345;28;88979;-44
2022/06/19 07:21:56;;;;;;;;;;;19.10;65.40;;;;;;5043455;28;88463;-44
2022/06/19 07:24:22;;;;;;;;;;;19.10;64.60;;;;;;5043594;28;87115;-44
2022/06/19 07:26:47;;;;;;;;;;;19.20;64.60;;;;;;5043932;28;87409;-44
2022/06/19 07:29:13;;;;;;;;;;;19.10;64.60;;;;;;5043147;28;87964;-44
2022/06/19 07:31:38;;;;;;;;;;;19.20;64.60;;;;;;5046214;28;87102;-44
2022/06/19 07:34:05;;;;;;;;;;;19.10;64.60;;;;;;5042275;28;88958;-44
2022/06/19 07:36:30;;;;;;;;;;;19.20;64.40;;;;;;5042396;27;87220;-44
2022/06/19 07:38:56;;;;;;;;;;;19.20;64.30;;;;;;5043296;28;87236;-45
2022/06/19 07:41:21;;;;;;;;;;;19.20;64.40;;;;;;5042794;28;88192;-44
2022/06/19 07:43:50;;;;;;;;;;;19.20;64.10;;;;;;5043275;28;87150;-44
2022/06/19 07:46:16;;;;;;;;;;;19.20;64.10;;;;;;5043264;27;87004;-44
2022/06/19 07:51:26;;;;;;;;;;;19.20;63.90;;;;;;5043937;28;86289;-44
2022/06/19 07:53:52;;;;;;;;;;;19.20;63.70;;;;;;5045669;27;87594;-44
2022/06/19 07:56:17;;;;;;;;;;;19.20;63.40;;;;;;5043256;28;87109;-44
2022/06/19 07:58:43;;;;;;;;;;;19.20;62.90;;;;;;5042377;28;87742;-44
2022/06/19 08:01:09;;;;;;;;;;;19.20;63.20;;;;;;5042199;28;89134;-45
2022/06/19 08:03:34;;;;;;;;;;;19.20;63.30;;;;;;5042901;28;87047;-44
2022/06/19 08:06:00;;;;;;;;;;;19.20;63.10;;;;;;5043180;28;86986;-44
2022/06/19 08:08:27;;;;;;;;;;;19.20;62.90;;;;;;5042447;28;87985;-44
2022/06/19 08:10:54;;;;;;;;;;;19.20;62.50;;;;;;5042252;28;87280;-44
2022/06/19 08:13:20;;;;;;;;;;;19.20;62.60;;;;;;5042706;28;87470;-45
2022/06/19 08:15:50;;;;;;;;;;;19.20;62.50;;;;;;5045952;28;87312;-45
2022/06/19 08:18:16;;;;;;;;;;;19.20;62.30;;;;;;5042842;27;86978;-44
2022/06/19 08:20:42;;;;;;;;;;;19.20;61.80;;;;;;5042329;28;89262;-44
2022/06/19 08:23:07;;;;;;;;;;;19.20;62.00;;;;;;5041736;28;88343;-44
2022/06/19 08:25:33;;;;;;;;;;;19.20;62.00;;;;;;5042642;27;88280;-44
2022/06/19 08:27:58;;;;;;;;;;;19.20;61.80;;;;;;5042352;28;88068;-44
2022/06/19 08:30:26;;;;;;;;;;;19.30;62.10;;;;;;5042800;28;87045;-45
2022/06/19 08:32:51;;;;;;;;;;;19.20;61.80;;;;;;5042583;27;87438;-45
2022/06/19 08:35:17;;;;;;;;;;;19.30;61.90;;;;;;5044924;28;87979;-45
2022/06/19 08:37:43;;;;;;;;;;;19.30;61.70;;;;;;5042565;27;87455;-44
2022/06/19 08:40:17;;;;;;;;;;;19.30;62.20;;;;;;5042742;28;87113;-46
2022/06/19 08:42:45;;;;;;;;;;;19.30;62.00;;;;;;5042860;28;88169;-45
2022/06/19 08:45:21;;;;;;;;;;;19.30;61.90;;;;;;5042430;28;87423;-45
2022/06/19 08:47:50;;;;;;;;;;;19.30;61.70;;;;;;5041711;27;90906;-44
2022/06/19 08:50:18;;;;;;;;;;;19.30;61.60;;;;;;5045858;28;87197;-44
2022/06/19 08:52:46;;;;;;;;;;;19.30;62.20;;;;;;5046124;28;87429;-45
2022/06/19 08:55:20;;;;;;;;;;;19.30;61.90;;;;;;5045551;28;88124;-44
2022/06/19 08:57:58;;;;;;;;;;;19.40;61.20;;;;;;5048934;28;87122;-45
2022/06/19 09:00:41;;;;;;;;;;;19.40;61.60;;;;;;5045766;28;88093;-44
2022/06/19 09:03:12;;;;;;;;;;;19.40;61.50;;;;;;5045533;28;87141;-44
2022/06/19 09:05:46;;;;;;;;;;;19.40;61.50;;;;;;5046221;28;87178;-44
2022/06/19 09:08:15;;;;;;;;;;;19.40;61.20;;;;;;5045290;28;88489;-44
2022/06/19 09:10:56;;;;;;;;;;;19.40;61.40;;;;;;5045599;28;87104;-45
2022/06/19 09:13:33;;;;;;;;;;;19.40;61.80;;;;;;5044963;27;87902;-44
2022/06/19 09:16:01;;;;;;;;;;;19.40;61.60;;;;;;5045222;28;87936;-44
2022/06/19 09:18:39;;;;;;;;;;;19.40;61.10;;;;;;5045615;28;87142;-45
2022/06/19 09:21:30;;;;;;;;;;;19.40;61.10;;;;;;5048102;27;89020;-44
2022/06/19 09:24:01;;;;;;;;;;;19.50;61.10;;;;;;5042869;28;87002;-45
2022/06/19 09:26:27;;;;;;;;;;;19.40;61.00;;;;;;5045601;27;87348;-45
2022/06/19 09:28:57;;;;;;;;;;;19.50;60.90;;;;;;5045143;28;88098;-45
2022/06/19 09:31:42;;;;;;;;;;;19.50;61.10;;;;;;5045633;28;86375;-44
2022/06/19 09:34:08;;;;;;;;;;;19.50;61.10;;;;;;5044823;28;86852;-45
2022/06/19 09:36:38;;;;;;;;;;;19.50;61.20;;;;;;5044634;28;89345;-45
2022/06/19 09:39:14;;;;;;;;;;;19.50;60.70;;;;;;5044489;28;88093;-45
2022/06/19 09:41:43;;;;;;;;;;;19.60;61.40;;;;;;5043745;28;89729;-45
2022/06/19 09:44:11;;;;;;;;;;;19.60;61.10;;;;;;5047512;28;88187;-44
2022/06/19 09:47:03;;;;;;;;;;;19.60;61.60;;;;;;5045225;28;87429;-45
2022/06/19 09:49:54;;;;;;;;;;;19.60;60.90;;;;;;5042499;28;88278;-45
2022/06/19 09:52:22;;;;;;;;;;;19.60;61.20;;;;;;5045228;28;87010;-45
2022/06/19 09:54:53;;;;;;;;;;;19.70;61.30;;;;;;5044939;28;88782;-45
2022/06/19 09:57:22;;;;;;;;;;;19.70;61.30;;;;;;5044787;28;86475;-45
2022/06/19 09:59:54;;;;;;;;;;;19.70;61.50;;;;;;5044027;27;87328;-44
2022/06/19 10:02:32;;;;;;;;;;;19.70;61.40;;;;;;5045122;27;87336;-44
2022/06/19 10:05:12;;;;;;;;;;;19.70;61.40;;;;;;5043791;28;88993;-44
2022/06/19 10:07:41;;;;;;;;;;;19.80;61.30;;;;;;5047665;28;87028;-45
2022/06/19 10:10:29;;;;;;;;;;;19.80;61.60;;;;;;5044135;28;88149;-44
2022/06/19 10:12:56;;;;;;;;;;;19.80;60.50;;;;;;5044250;28;86978;-45
2022/06/19 10:15:32;;;;;;;;;;;19.80;61.10;;;;;;5044382;28;89076;-44
2022/06/19 10:18:02;;;;;;;;;;;19.80;61.40;;;;;;5044452;28;88041;-45
2022/06/19 10:20:50;;;;;;;;;;;19.80;61.10;;;;;;5044282;28;87196;-45
2022/06/19 10:23:28;;;;;;;;;;;19.80;61.40;;;;;;5038710;28;87445;-45
2022/06/19 10:25:54;;;;;;;;;;;19.90;61.10;;;;;;5043922;28;90136;-45
2022/06/19 10:28:31;;;;;;;;;;;19.90;61.60;;;;;;5044051;28;87154;-45
2022/06/19 10:31:15;;;;;;;;;;;19.80;61.20;;;;;;5046370;28;89256;-45
2022/06/19 10:33:59;;;;;;;;;;;19.80;61.00;;;;;;5044425;27;87210;-45
2022/06/19 10:36:37;;;;;;;;;;;19.90;61.60;;;;;;5044667;27;87481;-46
2022/06/19 10:39:14;;;;;;;;;;;20.00;61.20;;;;;;5043544;28;87974;-44
2022/06/19 10:42:01;;;;;;;;;;;20.00;61.00;;;;;;5044682;28;86846;-46
2022/06/19 10:44:31;;;;;;;;;;;20.00;60.50;;;;;;5044593;27;87292;-45
2022/06/19 10:47:08;;;;;;;;;;;20.00;61.10;;;;;;5043739;28;87298;-44
2022/06/19 10:49:35;;;;;;;;;;;20.00;60.90;;;;;;5044310;28;86328;-45
2022/06/19 10:52:08;;;;;;;;;;;20.00;60.70;;;;;;5046669;28;87014;-46
2022/06/19 10:54:46;;;;;;;;;;;20.00;60.50;;;;;;5043754;28;87000;-45
2022/06/19 10:57:16;;;;;;;;;;;20.10;61.10;;;;;;5043595;27;87899;-44
2022/06/19 10:59:42;;;;;;;;;;;20.10;60.80;;;;;;5043497;28;89354;-45
2022/06/19 11:05:23;;;;;;;;;;;20.10;60.90;;;;;;5042329;28;87000;-45
2022/06/19 11:07:48;;;;;;;;;;;20.20;60.00;;;;;;5043281;28;88545;-45
2022/06/19 11:10:17;;;;;;;;;;;20.20;60.80;;;;;;5043400;28;87182;-45
2022/06/19 11:12:47;;;;;;;;;;;20.20;60.50;;;;;;5043443;27;87222;-45
2022/06/19 11:15:26;;;;;;;;;;;20.20;60.80;;;;;;5046598;28;87285;-45
2022/06/19 11:18:12;;;;;;;;;;;20.20;60.60;;;;;;5043559;27;88193;-46
2022/06/19 11:20:39;;;;;;;;;;;20.30;60.70;;;;;;5043122;28;89356;-44
2022/06/19 11:23:17;;;;;;;;;;;20.30;60.70;;;;;;5042827;28;88093;-45
2022/06/19 11:25:45;;;;;;;;;;;20.30;60.70;;;;;;5042031;28;91413;-45
2022/06/19 11:28:16;;;;;;;;;;;20.40;60.30;;;;;;5042827;28;89756;-45
2022/06/19 11:30:52;;;;;;;;;;;20.40;60.60;;;;;;5043246;27;87227;-44
2022/06/19 11:33:38;;;;;;;;;;;20.30;60.60;;;;;;5043454;27;86837;-44
2022/06/19 11:36:05;;;;;;;;;;;20.40;60.40;;;;;;5042493;28;88016;-46
2022/06/19 11:38:34;;;;;;;;;;;20.40;60.70;;;;;;5046119;28;86974;-45
2022/06/19 11:40:59;;;;;;;;;;;20.40;60.50;;;;;;5043246;28;88954;-45
2022/06/19 11:43:27;;;;;;;;;;;20.40;60.40;;;;;;5043265;28;87026;-45
2022/06/19 11:45:57;;;;;;;;;;;20.50;60.50;;;;;;5043059;27;88936;-45
2022/06/19 11:48:25;;;;;;;;;;;20.50;60.30;;;;;;5042179;28;89154;-46
2022/06/19 11:50:51;;;;;;;;;;;20.50;60.50;;;;;;5043268;28;87181;-44
2022/06/19 11:53:20;;;;;;;;;;;20.50;60.70;;;;;;5043173;27;87924;-44
2022/06/19 11:56:12;;;;;;;;;;;20.50;60.00;;;;;;5042492;28;87893;-44
2022/06/19 11:58:42;;;;;;;;;;;20.50;60.20;;;;;;5042895;28;86942;-45
2022/06/19 12:01:15;;;;;;;;;;;20.60;60.20;;;;;;5045520;27;87393;-45
2022/06/19 12:03:49;;;;;;;;;;;20.60;60.30;;;;;;5042929;28;87112;-45
2022/06/19 12:06:16;;;;;;;;;;;20.60;60.30;;;;;;5043214;27;87442;-45
2022/06/19 12:08:54;;;;;;;;;;;20.60;60.10;;;;;;5042191;28;89363;-44
2022/06/19 12:11:33;;;;;;;;;;;20.60;60.00;;;;;;5041864;28;87253;-45
2022/06/19 12:13:59;;;;;;;;;;;20.60;60.00;;;;;;5042025;27;88042;-45
2022/06/19 12:16:24;;;;;;;;;;;20.60;60.00;;;;;;5042709;28;87834;-44
2022/06/19 12:18:50;;;;;;;;;;;20.70;59.80;;;;;;5042606;28;88107;-45
2022/06/19 12:21:18;;;;;;;;;;;20.70;60.10;;;;;;5042957;28;87449;-44
2022/06/19 12:23:49;;;;;;;;;;;20.80;59.90;;;;;;5044522;28;87280;-45
2022/06/19 12:26:19;;;;;;;;;;;20.80;60.00;;;;;;5042660;28;87596;-45
2022/06/19 12:28:50;;;;;;;;;;;20.80;59.80;;;;;;5041920;28;88161;-44
2022/06/19 12:31:17;;;;;;;;;;;20.80;59.80;;;;;;5042893;28;86336;-45
2022/06/19 12:34:03;;;;;;;;;;;20.80;59.60;;;;;;5042679;28;86974;-46
2022/06/19 12:36:32;;;;;;;;;;;20.80;60.00;;;;;;5041833;28;89337;-44
2022/06/19 12:38:57;;;;;;;;;;;20.80;59.80;;;;;;5041706;28;88118;-45
2022/06/19 12:41:32;;;;;;;;;;;20.90;59.90;;;;;;5042676;28;87536;-45
2022/06/19 12:44:00;;;;;;;;;;;20.90;59.90;;;;;;5042381;28;88054;-45
2022/06/19 12:46:35;;;;;;;;;;;20.90;59.40;;;;;;5045475;28;86947;-45
2022/06/19 12:49:19;;;;;;;;;;;20.90;59.40;;;;;;5042174;28;87416;-46
2022/06/19 12:51:50;;;;;;;;;;;20.90;59.40;;;;;;5042552;27;87310;-45
2022/06/19 12:54:24;;;;;;;;;;;21.00;59.80;;;;;;5042171;28;87341;-45
2022/06/19 12:57:04;;;;;;;;;;;21.00;59.60;;;;;;5042559;28;87438;-45
2022/06/19 12:59:39;;;;;;;;;;;21.00;59.10;;;;;;5042237;28;87055;-45
2022/06/19 13:02:17;;;;;;;;;;;21.00;59.50;;;;;;5042427;27;86890;-46
2022/06/19 13:05:01;;;;;;;;;;;21.10;59.10;;;;;;5041081;28;90287;-44
2022/06/19 13:07:29;;;;;;;;;;;21.10;59.10;;;;;;5045098;27;86895;-45
2022/06/19 13:10:05;;;;;;;;;;;21.10;59.30;;;;;;5041391;28;88359;-45
2022/06/19 13:12:51;;;;;;;;;;;21.10;59.40;;;;;;5042039;28;87101;-45
2022/06/19 13:15:17;;;;;;;;;;;21.10;58.90;;;;;;5033535;28;90761;-45
2022/06/19 13:17:53;;;;;;;;;;;21.10;59.10;;;;;;5041880;28;88199;-45
2022/06/19 13:20:37;;;;;;;;;;;21.20;59.30;;;;;;5042128;28;87134;-45
2022/06/19 13:23:02;;;;;;;;;;;21.20;58.90;;;;;;5042340;27;88707;-44
2022/06/19 13:25:47;;;;;;;;;;;21.20;58.90;;;;;;5041628;28;88163;-45
2022/06/19 13:28:23;;;;;;;;;;;21.30;59.10;;;;;;5041958;28;87064;-45
2022/06/19 13:30:52;;;;;;;;;;;21.30;58.90;;;;;;5043854;27;87939;-45
2022/06/19 13:33:17;;;;;;;;;;;21.30;58.30;;;;;;5041639;28;87146;-45
2022/06/19 13:35:46;;;;;;;;;;;21.30;58.40;;;;;;5043788;27;87168;-44
2022/06/19 13:38:14;;;;;;;;;;;21.30;58.30;;;;;;5044982;28;87986;-44
2022/06/19 13:40:43;;;;;;;;;;;21.30;57.90;;;;;;5045268;28;86904;-45
2022/06/19 13:43:25;;;;;;;;;;;21.30;57.80;;;;;;5045204;27;87346;-45
2022/06/19 13:45:50;;;;;;;;;;;21.30;57.50;;;;;;5044830;28;88160;-45
2022/06/19 13:48:19;;;;;;;;;;;21.40;58.00;;;;;;5045754;28;86149;-44
2022/06/19 13:50:50;;;;;;;;;;;21.40;57.70;;;;;;5044994;27;87034;-45
2022/06/19 13:53:29;;;;;;;;;;;21.40;57.60;;;;;;5047438;28;89186;-45
2022/06/19 13:56:21;;;;;;;;;;;21.40;57.60;;;;;;5044388;27;87815;-45
2022/06/19 13:58:55;;;;;;;;;;;21.50;57.30;;;;;;5042169;28;87633;-45
2022/06/19 14:01:24;;;;;;;;;;;21.50;57.40;;;;;;5044745;28;87017;-45
2022/06/19 14:06:37;;;;;;;;;;;21.60;57.50;;;;;;5044648;28;87187;-45
2022/06/19 14:09:21;;;;;;;;;;;21.60;57.70;;;;;;5044886;28;87966;-45
2022/06/19 14:12:06;;;;;;;;;;;21.60;56.90;;;;;;5044139;27;87370;-44
2022/06/19 14:14:40;;;;;;;;;;;21.70;57.90;;;;;;5044587;28;88827;-45
2022/06/19 14:17:05;;;;;;;;;;;21.70;57.00;;;;;;5047685;28;87104;-45
2022/06/19 14:19:46;;;;;;;;;;;21.70;56.60;;;;;;5044106;28;88825;-44
2022/06/19 14:22:27;;;;;;;;;;;21.70;56.40;;;;;;5044275;28;87821;-44
2022/06/19 14:25:01;;;;;;;;;;;21.70;56.50;;;;;;5044621;28;87572;-44
2022/06/19 14:27:36;;;;;;;;;;;21.70;57.30;;;;;;5044208;28;88009;-45
2022/06/19 14:30:04;;;;;;;;;;;21.70;57.20;;;;;;5044612;28;87136;-44
2022/06/19 14:32:44;;;;;;;;;;;21.80;57.80;;;;;;5044575;27;87856;-45
2022/06/19 14:35:10;;;;;;;;;;;21.80;57.20;;;;;;5044074;28;87203;-44
2022/06/19 14:37:39;;;;;;;;;;;21.80;57.80;;;;;;5044286;28;87142;-45
2022/06/19 14:40:19;;;;;;;;;;;21.80;58.20;;;;;;5047586;28;87421;-45